Time;durP1;ratioP1;P1;durP2;ratioP2;P2;SDS_P1;SDS_P2;PMS_P1;PMS_P2;Temp;Humidity;BMP_temperature;BMP_pressure;BME280_temperature;BME280_humidity;BME280_pressure;Samples;Min_cycle;Max_cycle;Signal;HPM_P1;HPM_P2
2022/09/04 00:01:13;;;;;;;24.13;22.55;;;20.10;65.20;;;;;;5051450;28;20037;-83
2022/09/04 00:03:53;;;;;;;27.65;25.92;;;20.10;65.80;;;;;;5052072;28;20029;-83
2022/09/04 00:06:22;;;;;;;38.10;35.60;;;20.10;65.80;;;;;;5051989;28;20470;-83
2022/09/04 00:09:11;;;;;;;35.70;33.67;;;20.20;65.90;;;;;;5051962;28;20041;-83
2022/09/04 00:11:43;;;;;;;32.85;31.05;;;20.20;65.40;;;;;;5051337;28;20535;-82
2022/09/04 00:14:24;;;;;;;36.90;34.53;;;20.20;65.50;;;;;;5053327;28;20470;-83
2022/09/04 00:17:01;;;;;;;29.77;27.90;;;20.20;65.50;;;;;;5051386;28;20044;-83
2022/09/04 00:19:42;;;;;;;34.58;32.30;;;20.20;65.50;;;;;;5051868;28;20029;-83
2022/09/04 00:23:04;;;;;;;31.77;29.83;;;20.20;65.50;;;;;;5051419;28;20112;-83
2022/09/04 00:25:49;;;;;;;34.03;31.85;;;20.20;65.70;;;;;;5050372;28;20040;-83
2022/09/04 00:28:27;;;;;;;32.08;29.92;;;20.10;66.20;;;;;;5049316;28;20067;-82
2022/09/04 00:31:05;;;;;;;26.45;24.65;;;20.10;66.20;;;;;;5033113;28;20509;-83
2022/09/04 00:34:06;;;;;;;27.33;25.52;;;20.00;66.40;;;;;;5034807;28;20044;-83
2022/09/04 00:36:32;;;;;;;27.05;25.30;;;20.00;66.80;;;;;;5050442;28;20041;-83
2022/09/04 00:39:02;;;;;;;27.48;25.60;;;19.90;67.10;;;;;;5033981;28;20033;-83
2022/09/04 00:41:50;;;;;;;32.03;30.00;;;19.90;67.00;;;;;;5033527;28;20465;-83
2022/09/04 00:44:45;;;;;;;39.00;36.58;;;19.90;67.20;;;;;;5025989;28;20051;-83
2022/09/04 00:47:50;;;;;;;40.85;38.42;;;19.90;67.00;;;;;;5028248;28;20034;-83
2022/09/04 00:50:41;;;;;;;29.08;27.00;;;19.90;67.40;;;;;;5030157;28;20391;-83
2022/09/04 00:53:25;;;;;;;33.03;31.13;;;19.80;67.50;;;;;;5027558;28;20470;-83
2022/09/04 00:56:16;;;;;;;27.30;25.55;;;19.80;67.50;;;;;;5018267;28;20040;-83
2022/09/04 00:58:51;;;;;;;25.15;23.30;;;19.70;68.20;;;;;;4999162;28;20038;-83
2022/09/04 01:01:22;;;;;;;23.23;21.65;;;19.70;68.00;;;;;;5031761;28;20056;-83
2022/09/04 01:04:02;;;;;;;22.80;21.10;;;19.70;68.80;;;;;;5030904;28;20366;-83
2022/09/04 01:06:31;;;;;;;22.77;21.25;;;19.70;68.80;;;;;;5030934;28;20040;-83
2022/09/04 01:09:25;;;;;;;30.70;28.63;;;19.70;68.30;;;;;;5014661;28;20048;-82
2022/09/04 01:12:04;;;;;;;25.77;24.05;;;19.60;68.50;;;;;;5032007;28;20034;-82
2022/09/04 01:14:48;;;;;;;22.75;21.27;;;19.60;68.40;;;;;;5030734;28;20036;-82
2022/09/04 01:17:28;;;;;;;18.73;17.13;;;19.60;68.30;;;;;;5030299;28;20115;-83
2022/09/04 01:20:21;;;;;;;18.40;16.73;;;19.60;68.80;;;;;;5030884;28;20029;-83
2022/09/04 01:22:56;;;;;;;16.98;15.85;;;19.50;68.70;;;;;;5030860;28;20052;-83
2022/09/04 01:25:46;;;;;;;17.33;16.05;;;19.50;69.00;;;;;;5030374;28;20489;-83
2022/09/04 01:28:29;;;;;;;19.02;17.50;;;19.40;68.90;;;;;;5043947;28;20052;-83
2022/09/04 01:31:20;;;;;;;19.13;17.92;;;19.40;69.00;;;;;;5049890;28;20037;-82
2022/09/04 01:33:59;;;;;;;20.45;19.02;;;19.40;69.30;;;;;;5033693;28;20036;-83
2022/09/04 01:36:58;;;;;;;19.42;18.05;;;19.30;69.10;;;;;;5050273;28;20029;-83
2022/09/04 01:39:25;;;;;;;22.30;20.77;;;19.30;69.30;;;;;;5045933;28;20386;-83
2022/09/04 01:42:04;;;;;;;25.20;23.77;;;19.30;69.30;;;;;;5050162;28;20029;-83
2022/09/04 01:44:31;;;;;;;27.80;26.25;;;19.20;69.50;;;;;;5044118;28;20035;-83
2022/09/04 01:47:20;;;;;;;30.00;28.00;;;19.20;69.70;;;;;;5041320;28;20025;-82
2022/09/04 01:50:03;;;;;;;30.25;28.40;;;19.20;69.90;;;;;;5050294;28;20033;-82
2022/09/04 01:52:35;;;;;;;30.95;29.00;;;19.20;69.90;;;;;;5049990;28;20021;-83
2022/09/04 01:55:24;;;;;;;30.63;28.88;;;19.10;70.10;;;;;;5049819;28;20028;-83
2022/09/04 01:58:16;;;;;;;32.80;30.60;;;19.20;69.90;;;;;;5050970;28;20037;-82
2022/09/04 02:01:09;;;;;;;31.10;29.27;;;19.10;70.20;;;;;;5049231;28;20032;-82
2022/09/04 02:03:56;;;;;;;32.72;30.70;;;19.10;70.70;;;;;;5034040;28;20037;-82
2022/09/04 02:06:34;;;;;;;32.95;30.92;;;19.10;70.30;;;;;;5050057;28;20044;-82
2022/09/04 02:09:00;;;;;;;27.23;25.67;;;19.10;71.30;;;;;;5049454;28;20437;-82
2022/09/04 02:11:30;;;;;;;25.83;24.25;;;19.00;70.70;;;;;;5051255;28;20036;-83
2022/09/04 02:14:30;;;;;;;27.13;25.35;;;19.00;70.70;;;;;;5049471;28;20040;-83
2022/09/04 02:17:08;;;;;;;26.75;25.20;;;18.90;71.10;;;;;;5040508;28;20478;-82
2022/09/04 02:19:56;;;;;;;27.10;25.52;;;18.90;70.60;;;;;;5055825;28;20028;-83
2022/09/04 02:22:38;;;;;;;28.23;26.23;;;18.90;71.60;;;;;;5048993;28;20037;-82
2022/09/04 02:25:21;;;;;;;27.35;25.42;;;18.80;72.10;;;;;;5050602;28;20474;-82
2022/09/04 02:27:53;;;;;;;25.75;24.05;;;18.70;72.70;;;;;;5012525;28;20502;-82
2022/09/04 02:30:20;;;;;;;25.65;24.05;;;18.60;72.60;;;;;;5013024;28;20025;-82
2022/09/04 02:32:52;;;;;;;24.98;23.50;;;18.70;72.10;;;;;;5018552;28;20048;-83
2022/09/04 02:35:38;;;;;;;25.65;24.02;;;18.60;72.10;;;;;;5040036;28;20410;-81
2022/09/04 02:38:36;;;;;;;24.15;22.60;;;18.60;72.40;;;;;;5021624;28;20040;-83
2022/09/04 02:41:18;;;;;;;25.20;23.40;;;18.60;72.10;;;;;;5052106;28;20497;-82
2022/09/04 02:44:03;;;;;;;25.50;23.83;;;18.60;72.00;;;;;;5075464;28;20028;-83
2022/09/04 02:46:53;;;;;;;28.90;27.15;;;18.60;72.50;;;;;;5068991;28;20032;-82
2022/09/04 02:50:00;;;;;;;27.42;25.27;;;18.50;73.40;;;;;;5049565;28;20486;-82
2022/09/04 02:52:41;;;;;;;27.45;25.75;;;18.40;74.10;;;;;;5041632;28;20375;-83
2022/09/04 02:55:29;;;;;;;29.75;27.90;;;18.20;74.70;;;;;;5054904;28;20025;-83
2022/09/04 02:58:24;;;;;;;27.25;25.23;;;18.10;75.20;;;;;;5034767;28;20041;-82
2022/09/04 03:01:22;;;;;;;23.42;22.02;;;17.90;76.20;;;;;;5049800;28;20033;-83
2022/09/04 03:04:29;;;;;;;22.25;20.58;;;17.70;76.90;;;;;;5048918;28;20056;-83
2022/09/04 03:07:37;;;;;;;21.42;19.63;;;17.70;76.80;;;;;;5049615;28;20037;-82
2022/09/04 03:10:14;;;;;;;21.25;19.98;;;17.60;76.90;;;;;;5049730;28;20048;-82
2022/09/04 03:12:50;;;;;;;20.70;19.50;;;17.60;76.90;;;;;;5053063;28;20029;-82
2022/09/04 03:15:38;;;;;;;20.20;18.75;;;17.50;77.50;;;;;;5052482;28;20365;-82
2022/09/04 03:18:07;;;;;;;20.88;19.48;;;17.50;77.50;;;;;;5053055;28;20032;-83
2022/09/04 03:20:43;;;;;;;20.30;18.63;;;17.30;78.20;;;;;;5052809;28;20060;-82
2022/09/04 03:23:31;;;;;;;19.70;18.40;;;17.40;77.80;;;;;;5052826;28;20029;-83
2022/09/04 03:26:14;;;;;;;19.17;17.88;;;17.40;77.70;;;;;;5053152;28;20044;-83
2022/09/04 03:28:57;;;;;;;19.50;18.05;;;17.40;77.70;;;;;;5052688;28;20037;-83
2022/09/04 03:31:29;;;;;;;20.55;18.95;;;17.40;77.60;;;;;;5036144;28;20535;-83
2022/09/04 03:34:15;;;;;;;21.55;20.02;;;17.30;78.00;;;;;;5052706;28;20466;-83
2022/09/04 03:36:45;;;;;;;20.27;18.88;;;17.40;77.90;;;;;;5052568;28;20056;-83
2022/09/04 03:39:15;;;;;;;21.77;20.20;;;17.30;78.00;;;;;;5052689;28;20020;-82
2022/09/04 03:42:15;;;;;;;21.30;19.85;;;17.30;78.10;;;;;;5052334;28;20032;-82
2022/09/04 03:45:01;;;;;;;20.08;18.77;;;17.40;77.40;;;;;;5031250;28;20045;-82
2022/09/04 03:48:06;;;;;;;20.80;19.00;;;17.30;78.10;;;;;;5002543;28;20546;-83
2022/09/04 03:50:43;;;;;;;21.15;19.75;;;17.30;78.00;;;;;;4933509;29;20056;-82
2022/09/04 03:53:13;;;;;;;23.20;21.50;;;17.40;77.40;;;;;;4933871;29;20044;-82
2022/09/04 03:56:07;;;;;;;23.00;21.70;;;17.30;77.80;;;;;;4933397;29;20040;-82
2022/09/04 03:59:02;;;;;;;22.55;20.80;;;17.20;78.10;;;;;;4933867;29;20382;-83
2022/09/04 04:01:37;;;;;;;22.10;20.23;;;17.10;79.00;;;;;;4932993;29;20043;-83
2022/09/04 04:04:09;;;;;;;21.75;20.25;;;17.00;79.20;;;;;;4933535;29;20512;-82
2022/09/04 04:06:35;;;;;;;20.85;19.55;;;16.90;79.80;;;;;;4933619;29;20047;-83
2022/09/04 04:09:27;;;;;;;21.17;19.70;;;16.90;79.70;;;;;;4933571;29;20059;-82
2022/09/04 04:12:14;;;;;;;22.65;21.25;;;17.10;78.70;;;;;;4933310;29;20024;-82
2022/09/04 04:14:46;;;;;;;20.55;19.05;;;17.20;78.10;;;;;;4933514;29;20055;-82
2022/09/04 04:17:49;;;;;;;19.10;17.80;;;17.30;78.20;;;;;;4932381;29;20039;-82
2022/09/04 04:20:20;;;;;;;21.50;20.30;;;17.30;77.50;;;;;;4950120;28;20062;-82
2022/09/04 04:22:59;;;;;;;21.52;20.17;;;17.10;78.70;;;;;;4971795;28;20257;-82
2022/09/04 04:25:38;;;;;;;20.13;18.73;;;17.00;78.90;;;;;;4972112;28;20484;-82
2022/09/04 04:28:07;;;;;;;21.20;19.70;;;17.10;78.10;;;;;;5039679;28;20049;-82
2022/09/04 04:30:57;;;;;;;24.73;22.92;;;17.20;77.80;;;;;;5064262;28;20048;-82
2022/09/04 04:33:40;;;;;;;22.23;20.92;;;17.30;77.50;;;;;;5058572;28;20060;-82
2022/09/04 04:36:26;;;;;;;22.25;20.63;;;17.10;78.10;;;;;;5032967;28;20048;-83
2022/09/04 04:38:58;;;;;;;19.80;18.20;;;16.90;78.80;;;;;;5064730;28;20056;-82
2022/09/04 04:42:04;;;;;;;21.15;19.05;;;16.90;79.20;;;;;;5049482;28;20040;-82
2022/09/04 04:47:55;;;;;;;20.27;18.67;;;17.00;78.40;;;;;;5058818;28;20402;-82
2022/09/04 04:50:27;;;;;;;21.90;20.10;;;17.00;78.70;;;;;;5052435;28;20048;-82
2022/09/04 04:53:13;;;;;;;18.88;17.65;;;17.00;78.40;;;;;;5035186;28;20021;-83
2022/09/04 04:55:58;;;;;;;20.08;18.50;;;17.00;77.90;;;;;;5051026;28;20040;-82
2022/09/04 04:58:50;;;;;;;21.17;19.27;;;17.10;77.80;;;;;;5050803;28;20037;-83
2022/09/04 05:01:42;;;;;;;22.38;20.45;;;17.10;77.70;;;;;;5035839;28;20041;-83
2022/09/04 05:04:33;;;;;;;21.10;19.40;;;16.90;78.50;;;;;;5049949;28;20040;-82
2022/09/04 05:07:11;;;;;;;21.33;19.75;;;16.90;78.50;;;;;;5050722;28;20036;-82
2022/09/04 05:10:17;;;;;;;21.33;19.83;;;16.70;79.60;;;;;;5050853;28;20497;-82
2022/09/04 05:13:18;;;;;;;21.83;20.13;;;16.50;80.40;;;;;;5034253;28;20460;-82
2022/09/04 05:16:07;;;;;;;21.35;19.67;;;16.50;80.30;;;;;;5050832;28;20474;-83
2022/09/04 05:18:52;;;;;;;21.00;19.58;;;16.40;80.80;;;;;;5036246;28;20049;-83
2022/09/04 05:21:22;;;;;;;21.35;19.80;;;16.30;81.20;;;;;;5051934;28;20033;-83
2022/09/04 05:24:00;;;;;;;21.20;19.63;;;16.30;81.10;;;;;;5050506;28;20029;-83
2022/09/04 05:26:34;;;;;;;22.00;20.50;;;16.40;80.40;;;;;;5051794;28;20052;-83
2022/09/04 05:29:11;;;;;;;21.70;20.27;;;16.40;80.40;;;;;;5030637;28;20041;-82
2022/09/04 05:31:47;;;;;;;21.73;20.23;;;16.40;80.50;;;;;;5029755;28;20030;-82
2022/09/04 05:34:56;;;;;;;22.17;20.52;;;16.40;80.30;;;;;;5013803;28;20030;-82
2022/09/04 05:37:27;;;;;;;22.13;20.80;;;16.60;80.00;;;;;;5030113;28;20516;-83
2022/09/04 05:40:08;;;;;;;23.67;21.92;;;16.50;80.30;;;;;;5030336;28;20034;-83
2022/09/04 05:42:41;;;;;;;;;;;16.40;80.50;;;;;;5032072;28;20033;-83
2022/09/04 05:45:13;;;;;;;22.20;20.58;;;16.40;81.10;;;;;;5015304;28;19920;-82
2022/09/04 05:47:57;;;;;;;21.00;19.50;;;16.50;80.80;;;;;;5031176;28;20082;-82
2022/09/04 05:50:49;;;;;;;21.73;20.17;;;16.60;80.60;;;;;;5031205;28;20045;-82
2022/09/04 05:53:40;;;;;;;21.98;20.25;;;16.50;81.00;;;;;;5014351;28;20378;-82
2022/09/04 05:56:31;;;;;;;18.88;17.67;;;16.40;82.00;;;;;;5031423;28;20040;-83
2022/09/04 05:59:31;;;;;;;19.92;18.15;;;16.20;83.10;;;;;;5031352;28;20044;-82
2022/09/04 06:02:15;;;;;;;19.33;17.92;;;16.20;83.00;;;;;;5046503;28;20033;-83
2022/09/04 06:04:47;;;;;;;18.98;17.50;;;16.30;82.80;;;;;;5050980;28;20036;-83
2022/09/04 06:07:30;;;;;;;20.90;19.50;;;16.40;82.50;;;;;;5066243;28;20501;-83
2022/09/04 06:10:29;;;;;;;18.65;17.15;;;16.50;82.10;;;;;;5049924;28;20037;-83
2022/09/04 06:13:08;;;;;;;22.98;21.17;;;16.60;82.20;;;;;;5049865;28;20025;-82
2022/09/04 06:15:49;;;;;;;26.73;24.92;;;16.70;82.40;;;;;;5065423;28;20036;-83
2022/09/04 06:18:32;;;;;;;26.10;24.33;;;16.70;82.50;;;;;;5049864;28;20049;-82
2022/09/04 06:21:22;;;;;;;24.33;22.73;;;16.70;83.00;;;;;;5049615;28;20033;-82
2022/09/04 06:24:06;;;;;;;24.73;23.27;;;16.60;83.30;;;;;;5050904;28;20029;-83
2022/09/04 06:26:50;;;;;;;24.85;23.08;;;16.80;83.20;;;;;;5049645;28;20024;-83
2022/09/04 06:29:35;;;;;;;26.15;24.25;;;16.80;83.20;;;;;;5028803;28;20059;-83
2022/09/04 06:32:20;;;;;;;26.50;24.70;;;16.90;82.90;;;;;;5023666;28;20041;-83
2022/09/04 06:35:25;;;;;;;26.02;24.38;;;17.00;82.70;;;;;;5011023;28;20030;-83
2022/09/04 06:38:10;;;;;;;25.63;24.13;;;17.00;83.10;;;;;;5007863;28;20034;-83
2022/09/04 06:41:17;;;;;;;25.88;24.08;;;17.10;83.20;;;;;;5002331;28;20037;-82
2022/09/04 06:43:52;;;;;;;26.33;24.48;;;17.20;83.00;;;;;;5043805;28;20052;-82
2022/09/04 06:46:18;;;;;;;28.98;27.15;;;17.30;82.90;;;;;;5024208;28;20497;-83
2022/09/04 06:48:59;;;;;;;27.15;25.25;;;17.40;82.80;;;;;;5052128;28;20073;-83
2022/09/04 06:51:47;;;;;;;26.40;24.58;;;17.40;82.80;;;;;;5035998;28;20140;-83
2022/09/04 06:54:47;;;;;;;26.52;24.83;;;17.50;83.00;;;;;;5035058;28;20041;-83
2022/09/04 06:57:16;;;;;;;26.77;24.57;;;17.40;83.50;;;;;;5037603;28;20401;-83
2022/09/04 07:00:05;;;;;;;27.23;25.48;;;17.50;83.50;;;;;;5051802;28;20045;-83
2022/09/04 07:02:55;;;;;;;34.85;32.20;;;17.70;83.20;;;;;;5034258;28;20033;-83
2022/09/04 07:05:39;;;;;;;31.10;29.05;;;17.90;82.70;;;;;;5051962;28;20520;-83
2022/09/04 07:08:24;;;;;;;23.23;21.17;;;18.20;81.10;;;;;;5052036;28;20044;-84
2022/09/04 07:11:08;;;;;;;24.45;22.73;;;18.40;80.20;;;;;;5037080;28;20394;-83
2022/09/04 07:13:40;;;;;;;25.45;23.85;;;18.60;79.60;;;;;;5054087;28;20028;-84
2022/09/04 07:16:39;;;;;;;25.25;23.30;;;18.60;79.10;;;;;;5036540;28;20386;-83
2022/09/04 07:19:16;;;;;;;25.05;23.55;;;18.50;79.20;;;;;;5053023;28;20385;-83
2022/09/04 07:22:16;;;;;;;28.73;27.02;;;18.70;79.10;;;;;;5052793;28;20032;-84
2022/09/04 07:25:06;;;;;;;27.50;25.45;;;18.80;78.50;;;;;;5053421;28;20037;-83
2022/09/04 07:27:42;;;;;;;31.45;29.55;;;18.70;78.30;;;;;;5052457;28;20043;-84
2022/09/04 07:30:09;;;;;;;27.02;25.23;;;18.70;79.20;;;;;;5052545;28;20041;-83
2022/09/04 07:32:35;;;;;;;35.03;32.92;;;18.70;79.20;;;;;;5036151;28;20370;-84
2022/09/04 07:35:06;;;;;;;31.13;29.27;;;18.70;79.50;;;;;;5052677;28;20367;-84
2022/09/04 07:37:39;;;;;;;30.17;28.27;;;18.80;79.40;;;;;;5035620;28;20517;-84
2022/09/04 07:40:22;;;;;;;25.00;23.17;;;19.10;78.80;;;;;;5053741;28;20036;-84
2022/09/04 07:43:12;;;;;;;25.90;23.92;;;19.40;78.00;;;;;;5052254;28;20029;-84
2022/09/04 07:45:54;;;;;;;27.88;26.08;;;19.70;76.90;;;;;;5057744;28;20503;-83
2022/09/04 07:48:28;;;;;;;27.60;25.50;;;19.90;75.90;;;;;;5053383;28;20061;-84
2022/09/04 07:51:10;;;;;;;25.73;24.23;;;20.00;75.80;;;;;;5019377;28;20049;-84
2022/09/04 07:54:07;;;;;;;26.10;24.33;;;20.10;75.50;;;;;;5036320;28;20029;-83
2022/09/04 07:56:54;;;;;;;25.73;24.33;;;20.20;75.60;;;;;;5051490;28;20033;-84
2022/09/04 07:59:29;;;;;;;30.48;28.63;;;20.40;75.40;;;;;;5052330;28;20025;-84
2022/09/04 08:02:29;;;;;;;29.67;27.70;;;20.60;75.10;;;;;;5052747;28;20418;-84
2022/09/04 08:05:14;;;;;;;26.45;24.75;;;20.80;75.00;;;;;;5053201;28;20025;-84
2022/09/04 08:08:02;;;;;;;24.27;22.83;;;21.10;73.00;;;;;;5037399;28;20029;-85
2022/09/04 08:10:36;;;;;;;23.52;22.13;;;21.30;71.70;;;;;;5052486;28;20044;-84
2022/09/04 08:13:21;;;;;;;25.48;24.02;;;21.50;71.50;;;;;;5051962;28;20021;-84
2022/09/04 08:16:06;;;;;;;24.42;22.83;;;21.70;70.40;;;;;;5052675;28;20033;-84
2022/09/04 08:18:52;;;;;;;27.20;25.13;;;21.70;70.30;;;;;;5052043;28;20033;-84
2022/09/04 08:21:28;;;;;;;31.25;29.45;;;21.50;70.90;;;;;;5053477;28;20036;-85
2022/09/04 08:24:20;;;;;;;30.58;28.88;;;21.40;71.10;;;;;;5051696;28;20036;-84
2022/09/04 08:27:08;;;;;;;35.83;33.75;;;21.30;71.40;;;;;;5052537;28;20033;-84
2022/09/04 08:30:03;;;;;;;31.70;29.90;;;21.20;72.00;;;;;;5053007;28;20044;-84
2022/09/04 08:32:55;;;;;;;35.22;33.05;;;21.20;72.90;;;;;;5050836;28;20052;-84
2022/09/04 08:35:22;;;;;;;;;;;21.40;72.20;;;;;;5053357;28;20029;-84
2022/09/04 08:38:03;;;;;;;38.22;36.13;;;21.30;72.30;;;;;;5051682;28;19909;-84
2022/09/04 08:40:41;;;;;;;27.25;25.75;;;21.40;72.10;;;;;;5051261;28;20060;-84
2022/09/04 08:43:52;;;;;;;28.88;27.17;;;21.60;71.50;;;;;;5052639;28;20366;-85
2022/09/04 08:46:48;;;;;;;29.10;27.20;;;21.90;69.10;;;;;;5011864;28;20045;-84
2022/09/04 08:49:36;;;;;;;27.48;25.80;;;22.30;65.60;;;;;;5012997;28;20405;-85
2022/09/04 08:52:39;;;;;;;27.92;26.10;;;22.50;66.80;;;;;;5029974;28;20033;-85
2022/09/04 08:55:48;;;;;;;37.00;34.67;;;22.80;65.90;;;;;;5029720;28;20359;-85
2022/09/04 08:58:23;;;;;;;35.38;33.22;;;23.00;65.50;;;;;;4996705;28;20498;-85
2022/09/04 09:00:52;;;;;;;31.83;29.98;;;23.20;65.10;;;;;;5029458;28;20033;-84
2022/09/04 09:03:28;;;;;;;28.98;27.42;;;23.30;63.00;;;;;;5030037;28;20033;-84
2022/09/04 09:06:25;;;;;;;37.08;34.95;;;23.30;62.30;;;;;;5013650;28;20048;-85
2022/09/04 09:09:12;;;;;;;29.35;27.75;;;23.50;64.00;;;;;;5012066;28;20445;-85
2022/09/04 09:11:48;;;;;;;23.02;21.73;;;23.80;61.80;;;;;;5012812;28;20045;-85
2022/09/04 09:15:04;;;;;;;19.00;17.73;;;24.10;59.70;;;;;;4997070;28;20060;-85
2022/09/04 09:18:00;;;;;;;20.10;18.52;;;24.30;58.90;;;;;;4953681;28;20043;-85
2022/09/04 09:20:49;;;;;;;20.20;18.73;;;23.90;58.60;;;;;;4962905;28;20043;-85
2022/09/04 09:23:15;;;;;;;26.27;24.67;;;23.70;59.10;;;;;;4973635;28;20049;-85
2022/09/04 09:26:07;;;;;;;24.92;23.15;;;23.60;59.30;;;;;;4990318;28;20053;-85
2022/09/04 09:29:00;;;;;;;25.90;24.40;;;23.70;59.60;;;;;;4990005;28;20144;-85
2022/09/04 09:31:34;;;;;;;28.75;27.00;;;23.70;59.30;;;;;;4973605;28;20146;-85
2022/09/04 09:34:18;;;;;;;30.70;29.00;;;23.90;59.50;;;;;;4990195;28;20057;-85
2022/09/04 09:37:05;;;;;;;33.42;31.58;;;23.90;59.10;;;;;;4990099;28;20046;-84
2022/09/04 09:39:53;;;;;;;31.75;29.95;;;23.60;59.50;;;;;;4989793;28;20487;-85
2022/09/04 09:42:41;;;;;;;28.85;27.27;;;23.60;60.00;;;;;;4973809;28;20042;-85
2022/09/04 09:45:22;;;;;;;28.20;26.13;;;23.60;60.30;;;;;;4989323;28;20038;-85
2022/09/04 09:47:52;;;;;;;24.00;22.60;;;23.60;60.00;;;;;;4974436;28;20054;-85
2022/09/04 09:50:21;;;;;;;22.23;20.85;;;23.70;59.40;;;;;;4957690;28;20122;-85
2022/09/04 09:52:47;;;;;;;20.30;19.02;;;23.80;58.30;;;;;;5021932;28;20044;-85
2022/09/04 09:55:41;;;;;;;20.95;19.65;;;23.80;57.80;;;;;;5066215;28;20032;-85
2022/09/04 09:58:29;;;;;;;20.63;19.20;;;23.90;56.70;;;;;;5066420;28;20047;-85
2022/09/04 10:01:19;;;;;;;22.85;21.35;;;23.90;56.00;;;;;;5050668;28;20505;-85
2022/09/04 10:04:32;;;;;;;23.27;21.80;;;24.10;55.80;;;;;;5066150;28;20047;-85
2022/09/04 10:07:10;;;;;;;20.50;19.40;;;24.30;54.30;;;;;;5048452;28;20045;-85
2022/09/04 10:10:03;;;;;;;21.17;19.77;;;24.20;54.50;;;;;;5031429;28;20053;-83
2022/09/04 10:13:06;;;;;;;18.77;17.60;;;24.10;54.40;;;;;;5031939;28;20505;-85
2022/09/04 10:15:38;;;;;;;20.80;19.60;;;24.30;54.70;;;;;;5048171;28;20436;-85
2022/09/04 10:18:13;;;;;;;19.90;18.80;;;24.30;54.20;;;;;;5048555;28;20037;-85
2022/09/04 10:20:54;;;;;;;22.45;20.95;;;24.60;54.10;;;;;;5048043;28;20033;-85
2022/09/04 10:24:05;;;;;;;21.83;20.35;;;24.70;53.30;;;;;;5048556;28;20048;-85
2022/09/04 10:26:50;;;;;;;19.65;18.52;;;24.80;53.10;;;;;;4969604;28;20043;-85
2022/09/04 10:29:25;;;;;;;21.45;19.95;;;24.90;53.60;;;;;;4950261;29;20043;-85
2022/09/04 10:32:06;;;;;;;20.95;19.65;;;25.10;53.20;;;;;;4949845;28;20364;-85
2022/09/04 10:35:19;;;;;;;24.30;22.60;;;25.10;52.70;;;;;;4966344;28;20035;-85
2022/09/04 10:38:00;;;;;;;23.08;21.65;;;24.90;52.40;;;;;;4912022;29;20055;-85
2022/09/04 10:40:37;;;;;;;21.98;20.38;;;25.00;53.20;;;;;;4920559;29;20032;-85
2022/09/04 10:43:08;;;;;;;21.05;19.90;;;25.20;53.00;;;;;;4919055;29;20044;-85
2022/09/04 10:45:47;;;;;;;23.42;21.88;;;25.20;52.00;;;;;;4929523;28;20040;-85
2022/09/04 10:48:47;;;;;;;24.55;23.15;;;25.20;51.80;;;;;;4914895;29;20066;-85
2022/09/04 10:51:33;;;;;;;21.15;19.85;;;25.40;51.30;;;;;;4916498;29;20048;-85
2022/09/04 10:54:35;;;;;;;26.00;24.38;;;25.50;51.00;;;;;;4917550;29;20044;-85
2022/09/04 10:57:27;;;;;;;26.70;25.17;;;25.60;50.60;;;;;;4915583;29;20588;-85
2022/09/04 11:00:07;;;;;;;22.63;21.20;;;25.70;49.80;;;;;;4915451;29;20513;-85
2022/09/04 11:02:57;;;;;;;26.30;24.70;;;25.70;50.70;;;;;;4917715;29;20047;-85
2022/09/04 11:05:50;;;;;;;23.33;21.85;;;25.80;50.60;;;;;;4950091;29;20038;-85
2022/09/04 11:08:38;;;;;;;26.73;25.33;;;26.00;49.80;;;;;;4950262;29;20480;-85
2022/09/04 11:11:39;;;;;;;25.90;24.27;;;26.10;50.00;;;;;;4950070;29;20043;-85
2022/09/04 11:14:27;;;;;;;23.90;22.33;;;26.10;50.10;;;;;;4983081;28;20037;-85
2022/09/04 11:17:21;;;;;;;24.90;23.40;;;26.20;50.80;;;;;;5025539;28;20033;-86
2022/09/04 11:20:14;;;;;;;25.23;23.75;;;26.40;50.40;;;;;;5030319;28;20048;-85
2022/09/04 11:22:40;;;;;;;23.33;21.80;;;26.40;50.40;;;;;;5012681;28;20037;-85
2022/09/04 11:25:32;;;;;;;23.65;22.35;;;26.40;49.40;;;;;;5029094;28;20077;-85
2022/09/04 11:28:20;;;;;;;24.45;22.90;;;26.40;50.20;;;;;;5039141;28;20052;-85
2022/09/04 11:31:01;;;;;;;23.00;21.70;;;26.30;49.40;;;;;;5033379;28;20397;-86
2022/09/04 11:34:04;;;;;;;25.35;24.00;;;26.40;50.40;;;;;;5034209;28;20048;-85
2022/09/04 11:36:54;;;;;;;25.10;23.70;;;26.50;49.60;;;;;;5034382;28;20048;-85
2022/09/04 11:39:45;;;;;;;24.73;23.20;;;26.50;50.00;;;;;;5051415;28;20049;-85
2022/09/04 11:42:26;;;;;;;24.95;23.52;;;26.50;50.00;;;;;;5034312;28;20024;-85
2022/09/04 11:45:02;;;;;;;23.70;22.45;;;26.40;50.70;;;;;;5051595;28;20044;-85
2022/09/04 11:47:46;;;;;;;27.23;25.52;;;26.60;50.30;;;;;;5057595;28;20048;-85
2022/09/04 11:50:49;;;;;;;25.92;24.45;;;26.70;50.10;;;;;;5051179;28;20041;-85
2022/09/04 11:53:45;;;;;;;23.33;21.95;;;26.80;49.70;;;;;;5018215;28;20497;-85
2022/09/04 11:56:35;;;;;;;25.70;24.27;;;26.70;50.20;;;;;;5034746;28;20036;-85
2022/09/04 11:59:04;;;;;;;26.40;24.95;;;26.80;50.00;;;;;;5034419;28;20048;-85
2022/09/04 12:01:30;;;;;;;24.60;23.00;;;26.80;49.80;;;;;;5034028;28;20072;-85
2022/09/04 12:04:21;;;;;;;26.63;25.02;;;26.90;49.80;;;;;;5050793;28;20056;-85
2022/09/04 12:07:11;;;;;;;25.92;24.20;;;27.00;49.70;;;;;;5053588;28;20025;-85
2022/09/04 12:09:59;;;;;;;26.42;24.95;;;27.00;49.70;;;;;;5052207;28;20501;-85
2022/09/04 12:12:44;;;;;;;26.48;25.08;;;27.10;49.70;;;;;;5052990;28;20025;-85
2022/09/04 12:15:21;;;;;;;25.83;24.17;;;27.30;49.20;;;;;;5051627;28;20029;-85
2022/09/04 12:18:25;;;;;;;27.00;25.55;;;27.20;49.10;;;;;;5052075;28;20484;-85
2022/09/04 12:21:19;;;;;;;26.80;25.30;;;27.30;49.00;;;;;;5053983;28;20477;-85
2022/09/04 12:24:03;;;;;;;25.83;24.27;;;27.50;49.30;;;;;;5052421;28;20397;-85
2022/09/04 12:27:11;;;;;;;24.50;23.02;;;27.60;48.80;;;;;;5054085;28;20037;-85
2022/09/04 12:29:57;;;;;;;26.40;24.88;;;27.60;48.80;;;;;;5039701;28;20463;-85
2022/09/04 12:33:27;;;;;;;24.23;22.63;;;27.60;49.20;;;;;;5027588;28;20030;-85
2022/09/04 12:35:59;;;;;;;25.85;24.25;;;27.50;48.80;;;;;;4993567;28;20023;-84
2022/09/04 12:38:37;;;;;;;23.83;22.52;;;27.50;49.10;;;;;;4994483;28;20054;-84
2022/09/04 12:41:18;;;;;;;25.08;23.73;;;27.40;48.90;;;;;;5007131;28;20053;-85
2022/09/04 12:44:07;;;;;;;22.73;21.48;;;27.30;49.30;;;;;;4994460;28;20050;-84
2022/09/04 12:47:18;;;;;;;22.85;21.55;;;27.20;49.40;;;;;;4976617;28;20035;-85
2022/09/04 12:50:14;;;;;;;24.10;22.75;;;27.30;49.30;;;;;;4939251;29;20202;-85
2022/09/04 12:53:18;;;;;;;25.08;23.58;;;27.50;49.40;;;;;;4935302;29;20378;-85
2022/09/04 12:56:02;;;;;;;26.95;25.35;;;27.70;49.20;;;;;;4934129;29;20512;-85
2022/09/04 12:58:32;;;;;;;28.10;26.58;;;27.80;48.70;;;;;;4917918;29;20047;-85
2022/09/04 13:01:08;;;;;;;26.75;25.35;;;27.70;48.60;;;;;;4919125;29;20027;-84
2022/09/04 13:03:59;;;;;;;23.38;21.98;;;27.60;49.30;;;;;;4923533;29;20567;-85
2022/09/04 13:06:38;;;;;;;25.90;24.60;;;27.60;49.40;;;;;;4919273;29;20040;-85
2022/09/04 13:09:50;;;;;;;25.55;24.20;;;27.70;49.30;;;;;;4923814;29;20043;-85
2022/09/04 13:12:38;;;;;;;26.40;24.90;;;27.80;48.60;;;;;;4906539;29;20520;-84
2022/09/04 13:15:27;;;;;;;26.20;24.80;;;27.90;48.80;;;;;;4932226;29;20047;-85
2022/09/04 13:18:14;;;;;;;26.00;24.70;;;28.10;48.80;;;;;;4901116;29;20039;-85
2022/09/04 13:21:08;;;;;;;29.80;28.13;;;28.20;49.00;;;;;;4932439;29;20046;-85
2022/09/04 13:24:19;;;;;;;30.05;28.52;;;28.40;48.20;;;;;;4932423;29;20036;-85
2022/09/04 13:26:59;;;;;;;27.70;26.23;;;28.50;48.90;;;;;;4936535;28;20042;-86
2022/09/04 13:29:25;;;;;;;28.75;27.05;;;28.60;48.50;;;;;;4970283;28;20050;-86
2022/09/04 13:32:31;;;;;;;29.77;28.02;;;28.90;48.20;;;;;;4969812;28;20053;-85
2022/09/04 13:35:08;;;;;;;29.52;27.83;;;29.00;47.80;;;;;;4957158;28;20042;-84
2022/09/04 13:37:49;;;;;;;43.88;41.63;;;29.10;47.60;;;;;;4955412;28;20046;-85
2022/09/04 13:40:34;;;;;;;32.15;30.33;;;29.10;47.30;;;;;;4974054;28;20504;-85
2022/09/04 13:43:08;;;;;;;29.65;28.05;;;29.10;47.20;;;;;;4970454;28;20038;-85
2022/09/04 13:45:40;;;;;;;29.48;27.88;;;28.90;48.10;;;;;;4971505;28;20672;-85
2022/09/04 13:48:11;;;;;;;31.77;29.98;;;28.90;48.00;;;;;;5009959;28;20120;-85
2022/09/04 13:50:51;;;;;;;30.65;28.83;;;29.00;48.20;;;;;;5050176;28;20041;-86
2022/09/04 13:53:21;;;;;;;29.83;28.13;;;29.00;47.70;;;;;;5033403;28;20037;-85
2022/09/04 13:55:57;;;;;;;31.08;29.08;;;28.90;47.80;;;;;;5033284;28;20041;-85
2022/09/04 13:58:37;;;;;;;33.97;32.13;;;29.00;48.00;;;;;;5049873;28;20048;-85
2022/09/04 14:01:08;;;;;;;28.60;27.00;;;29.20;48.10;;;;;;5049449;28;20029;-85